KMVL/MVL METAR and TAF weather

Enter ICAO airport designator
Station Type Date Time Source
KMVL METAR 2022/06/28 13:54 UTC NOAA

KMVL 281354Z AUTO 34006KT 10SM FEW034 SCT050 BKN085 17/13 A3013 RMK AO2 SLP204 T01720128


Station Type Date Time Source
KMVL Decoded METAR 2022/06/28 13:54 UTC NOAA

MORRISVILLE STOWE STATE AIRPORT , VT, United States (KMVL) 44-32N 72-37W 223M
Jun 28, 2022 - 09:54 AM EDT / 2022.06.28 1354 UTC
Wind: from the NNW (340 degrees) at 7 MPH (6 KT):0
Visibility: 10 mile(s):0
Sky conditions: mostly cloudy
Temperature: 63.0 F (17.2 C)
Dew Point: 55.0 F (12.8 C)
Relative Humidity: 75%
Pressure (altimeter): 30.13 in. Hg (1020 hPa)
ob: KMVL 281354Z AUTO 34006KT 10SM FEW034 SCT050 BKN085 17/13 A3013 RMK AO2 SLP204 T01720128
cycle: 14

Station Type Date Time Source
KMVL TAF UTC NOAA

Error!

Example: see airport list